This site, now in its 15th season, is a labour of love and fun from one of Ottawa's most avid time trialists and number crunchers. It adheres to and is permitted by the laws of Canada, promotes the objectives of every bicycle club whose results are shown, and is donated free of charge by myself for your enjoyment and usage. If you would like results from series you ride in to be shown here, give me (celia@drmath.ca) a shout!


Index Page
ATT OTT WTT AATT CFCTT VVVTT
Help resultformat:
Case-sensitive

OBC Open TT Series - 2019-May-16 - 15km (Rockliffe Pkwy) (EvtFactor = 0.8522)

Ottawa Weather (18:00): Mostly Cloudy. Temp.erature: 11.9C, Wind: SSE 7km/h, Relative humidity: 59%, Dew point: 4C, Pressure: 101.1kPa, Visibility: 24km.
Ottawa Weather (19:00): Mostly Cloudy. Temp.erature: 11.8C, Wind: S 3km/h, Relative humidity: 61%, Dew point: 5C, Pressure: 101.1kPa, Visibility: 24km.
Ottawa Weather (20:00): Mostly Cloudy. Temp.erature: 11.3C, Wind: SE 4km/h, Relative humidity: 64%, Dew point: 5C, Pressure: 101.1kPa, Visibility: 24km.

Send photos with description (when/where/what) of yourself on or off of bike to celia@drmath.ca

 
 

BESTS?
 
Y 1 Gee, Derek  IND 18:17 49.225 1/49 SEM 1/7 1.0193
2 Cowley, Brendan RWR 19:44 45.608 2/49 SEM 2/7  
3 De Haitre, Vincent IND 20:10 44.628 3/49 SEM 3/7 1.0427
4 Manners, Mark WQW 20:30 43.902 4/49 VAM 1/4  
5 Diaz, Rodrigo  OBC/EUR 20:31 43.867 5/49 VBM 1/6  
Y 6 Bergeron, Unknown & Frost, Unknown IND 20:48 43.269 6/49 TAN 1/1  
7 Willcox, John RWR 20:51 43.165 7/49 SEM 4/7  
8 Brodeur, Martin OBC 20:52 43.131 8/49 VBM 2/6 1.1720
9 Lafleur, Guillaume OBC 21:36 41.667 9/49 VAM 2/4  
10 Graveline, Marc OBC 21:59 40.940 10/49 VCM 1/10  
11 Burge, Craig  CYC 22:06 40.724 11/49 VCM 2/10 1.0529
12 Page, Graham OBC/NTF 22:07 40.693 12/49 VAM 3/4 0.9753
13 Woodford, Theodore OBC 22:39 39.735 13/49 JUM 1/1 1.1192
14 Bernard, Sophie IND 22:46 39.531 14/49 SEF 1/2  
15 Till, Michael WQW 22:49 39.445 15/49 VCM 3/10 1.1373
16 Budgell, Glen  OBC 22:55 39.273 16/49 VDM 1/6  
17 Messier, Jill WQW 23:02 39.074 17/49 SEF 2/2 1.2059
18 Campbell, Colin  OBC 23:12 38.793 18/49 VCM 4/10 0.9850
19 Posthuma, Hans  OBC 23:16 38.682 19/49 VDM 2/6 0.9957
20 Redshaw, Russ  OBC 23:21 38.544 20/49 VDM 3/6  
21 Milette, Laury OBC 23:24 38.462 21/49 JUF 1/2 1.1222
22 DeVidi, Robert  OBC 23:27 38.380 22/49 VCM 5/10  
23 Morris, Steve OBC 23:31 38.271 23/49 VCM 6/10  
24 Fournier, James OBC 23:34 38.190 24/49 VBM 3/6 1.0322
25 Burge, Larry  OBC 24:02 37.448 25/49 VCM 7/10 1.5091
26 Beaulieu, Jean-Paul OBC 24:06 37.344 26/49 VCM 8/10 1.0251
27 Mroz, Geoff OBC 24:11 37.216 27/49 VBM 4/6  
28 Arsenault, Ariane OBC 24:12 37.190 28/49 CAF 1/1 1.1069
29 Stevenson, Timothy OBC 24:28 36.785 29/49 VBM 5/6 1.0541
30 Stapleton, Andrew OBC 24:29 36.760 30/49 SEM 5/7  
31 Dorego, Jean-Louis OBC 24:32 36.685 31/49 VDM 4/6  
32 Clarke, Shawn SRC/CYC 24:47 36.315 32/49 VAM 4/4 1.3293
33 Tkalec, Heather  EUR 24:53 36.169 33/49 VBF 1/3 1.0678
34 Hinz, David OBC 24:57 36.072 34/49 VCM 9/10  
35 Deavy, Carol  RPO 25:03 35.928 35/49 VCF 1/1  
36 Markel, Dan OBC 25:07 35.833 36/49 VBM 6/6  
37 Persaud, Richard OBC 25:27 35.363 37/49 SEM 6/7  
38 Hauschildt, Gunter OBC 25:44 34.974 38/49 VCM 10/10  
39 Forget, Emilie OBC 25:50 34.839 39/49 JUF 2/2 1.2688
40 Hinz, Richard OBC 26:13 34.329 40/49 VDM 5/6 1.1626
41 Burdett, Avery  OBC 26:16 34.264 41/49 VFM 1/1 0.9422
42 Bédard-Hinz, Brigid OBC 26:27 34.026 42/49 VBF 2/3  
43 Balint, John OBC 26:31 33.941 43/49 VEM 1/2 1.0933
44 Lau, Adrian OBC 26:54 33.457 44/49 SEM 7/7  
45 Shand, Peter OBC 27:22 32.887 45/49 VDM 6/6  
46 Beauchamp, Angela  EUR 27:23 32.867 46/49 VBF 3/3  
47 Morvan, Jacques  OBC 27:49 32.355 47/49 VEM 2/2  
48 Drapeau, Blanche OBC 29:50 30.168 48/49 VDF 1/2  
49 McInnis, Celia  OBC 30:18 29.703 49/49 VDF 2/2 1.1361
 
Average Speed of all of the above 49 finishes (735km in 19:34:18):37.554
>>>Average of the Average Speeds for these 49 finishes37.962<<<
 

The number of data records shown above is 49
The server processing of your query took: 0 wallclock secs ( 0.08 usr + 0.00 sys = 0.08 CPU)

Thanks to our Helpers: Michel Bernier, Mark Manners, Alex McKnight, Jess Raymond, Peter Tregunno

     


Apr 19 (Good Friday)
May 2 May 7 (10km) May 9 May 14 (10km)
  May 16  
May 21 (10km) May 23 May 28 May 28 (10km) May 30
Jun 2 (40km) Jun 4 Jun 4 Jun 6 Jun 11 Jun 11 Jun 13 Jun 18 Jun 18 Jun 20 Jun 25 Jun 25 Jun 27 Jun 30 (40km)
Jul 2 Jul 2 Jul 4 Jul 9 Jul 9 Jul 11 (cancelled - lightning) Jul 16 Jul 16 Jul 18 Jul 23 Jul 23 Jul 25 Jul 28 (40km) Jul 30 Jul 30
Aug 1 Aug 6 Aug 6 Aug 8 Aug 13 Aug 13 Aug 15

OTT Rankings
Best       Best by category
WTT Rankings for All Participants
5 Best Speeds (≥3 15km, ≤1 10km)     5 Best Speeds (≥3 15km, ≤1 10km) by category
OTT Best Three 15km Rankings
Overall     by category     age-Hcap Female   age-Hcap Male
Other years
TT Calculator All TT People All TT events
ABC Home VVV Home
CKAP GOLD MEDAL
Other Links

Note: OTT data from 2003 through 2006-Apr-14 and 2007-Apr-06-? and WTT from 2008-? is taken from the official OBC site.

Please send your comments and suggestions to: Celia McInnis
Copyright © 1998-2011 Celia McInnis. All rights reserved. Links are welcomed.